createdAt,value
2017-10-20T00:00:48.990Z,0.00
2017-10-20T00:01:48.978Z,0.00
2017-10-20T00:02:48.964Z,0.00
2017-10-20T00:03:48.956Z,0.00
2017-10-20T00:04:48.942Z,0.00
2017-10-20T00:05:48.987Z,0.00
2017-10-20T00:06:48.931Z,0.00
2017-10-20T00:07:48.915Z,0.00
2017-10-20T00:08:48.901Z,0.00
2017-10-20T00:09:48.900Z,0.00
2017-10-20T00:10:48.881Z,0.00
2017-10-20T00:11:49.016Z,0.00
2017-10-20T00:12:48.853Z,0.00
2017-10-20T00:13:48.853Z,0.00
2017-10-20T00:14:48.841Z,0.00
2017-10-20T00:15:48.837Z,0.00
2017-10-20T00:16:48.817Z,0.00
2017-10-20T00:17:48.954Z,0.00
2017-10-20T00:18:48.797Z,0.00
2017-10-20T00:19:48.780Z,0.00
2017-10-20T00:20:48.777Z,0.00
2017-10-20T00:21:48.760Z,0.00
2017-10-20T00:22:48.754Z,0.00
2017-10-20T00:23:48.872Z,0.00
2017-10-20T00:24:48.736Z,0.00
2017-10-20T00:25:48.715Z,0.00
2017-10-20T00:26:48.705Z,0.00
2017-10-20T00:27:48.692Z,0.00
2017-10-20T00:28:48.684Z,0.00
2017-10-20T00:29:48.738Z,0.00
2017-10-20T00:30:48.666Z,0.00
2017-10-20T00:31:48.651Z,0.00
2017-10-20T00:32:48.644Z,0.00
2017-10-20T00:33:48.629Z,0.00
2017-10-20T00:34:48.629Z,0.00
2017-10-20T00:35:49.087Z,0.00
2017-10-20T00:36:48.609Z,0.00
2017-10-20T00:37:48.587Z,0.00
2017-10-20T00:38:48.578Z,0.00
2017-10-20T00:39:48.564Z,0.00
2017-10-20T00:40:48.551Z,0.00
2017-10-20T00:41:48.620Z,0.00
2017-10-20T00:42:48.531Z,0.00
2017-10-20T00:43:48.530Z,0.00
2017-10-20T00:44:48.507Z,0.00
2017-10-20T00:45:48.506Z,0.00
2017-10-20T00:46:48.493Z,0.00
2017-10-20T00:47:48.687Z,0.00
2017-10-20T00:48:48.474Z,0.00
2017-10-20T00:49:48.457Z,0.00
2017-10-20T00:50:48.453Z,0.00
2017-10-20T00:51:48.440Z,0.00
2017-10-20T00:52:48.436Z,0.00
2017-10-20T00:53:48.755Z,0.00
2017-10-20T00:54:48.418Z,0.00
2017-10-20T00:55:48.397Z,0.00
2017-10-20T00:56:48.384Z,0.00
2017-10-20T00:57:48.385Z,0.00
2017-10-20T00:58:48.353Z,0.00
2017-10-20T00:59:48.394Z,0.00
2017-10-20T01:00:48.330Z,0.00
2017-10-20T01:01:48.333Z,0.00
2017-10-20T01:02:48.322Z,0.00
2017-10-20T01:03:48.311Z,0.00
2017-10-20T01:04:48.295Z,0.00
2017-10-20T01:05:48.427Z,0.00
2017-10-20T01:06:48.280Z,0.00
2017-10-20T01:07:48.267Z,0.00
2017-10-20T01:08:48.263Z,0.00
2017-10-20T01:09:48.242Z,0.00
2017-10-20T01:10:48.232Z,0.00
2017-10-20T01:11:48.368Z,0.00
2017-10-20T01:12:48.201Z,0.00
2017-10-20T01:13:48.189Z,0.00
2017-10-20T01:14:48.193Z,0.00
2017-10-20T01:15:48.185Z,0.00
2017-10-20T01:16:48.160Z,0.00
2017-10-20T01:17:48.284Z,0.00
2017-10-20T01:18:48.148Z,0.00
2017-10-20T01:19:48.136Z,0.00
2017-10-20T01:20:48.132Z,0.00
2017-10-20T01:21:48.104Z,0.00
2017-10-20T01:22:48.093Z,0.00
2017-10-20T01:23:48.186Z,0.00
2017-10-20T01:24:48.077Z,0.00
2017-10-20T01:25:48.060Z,0.00
2017-10-20T01:26:48.062Z,0.00
2017-10-20T01:27:48.045Z,0.00
2017-10-20T01:28:48.041Z,0.00
2017-10-20T01:29:48.192Z,0.00
2017-10-20T01:30:48.007Z,0.00
2017-10-20T01:31:48.004Z,0.00
2017-10-20T01:32:47.998Z,0.00
2017-10-20T01:33:47.978Z,0.00
2017-10-20T01:34:47.971Z,0.00
2017-10-20T01:35:48.039Z,0.00
2017-10-20T01:36:47.948Z,0.00
2017-10-20T01:37:47.928Z,0.00
2017-10-20T01:38:47.929Z,0.00
2017-10-20T01:39:47.917Z,0.00
2017-10-20T01:40:47.905Z,0.00
2017-10-20T01:41:47.926Z,0.00
2017-10-20T01:42:47.979Z,0.00
2017-10-20T01:43:47.864Z,0.00
2017-10-20T01:44:47.864Z,0.00
2017-10-20T01:45:47.857Z,0.00
2017-10-20T01:46:47.835Z,0.00
2017-10-20T01:47:48.126Z,0.00
2017-10-20T01:48:47.875Z,0.00
2017-10-20T01:49:47.805Z,0.00
2017-10-20T01:50:47.793Z,0.00
2017-10-20T01:51:47.781Z,0.00
2017-10-20T01:52:47.833Z,0.00
2017-10-20T01:53:47.759Z,0.00
2017-10-20T01:54:47.773Z,0.00
2017-10-20T01:55:47.750Z,0.00
2017-10-20T01:56:47.728Z,0.00
2017-10-20T01:57:47.722Z,0.00
2017-10-20T01:58:47.849Z,0.00
2017-10-20T01:59:47.687Z,0.00
2017-10-20T02:00:47.675Z,0.00
2017-10-20T02:01:47.666Z,0.00
2017-10-20T02:02:47.677Z,0.00
2017-10-20T02:03:47.640Z,0.00
2017-10-20T02:04:47.811Z,0.00
2017-10-20T02:05:47.635Z,0.00
2017-10-20T02:06:47.610Z,0.00
2017-10-20T02:07:47.599Z,0.00
2017-10-20T02:08:47.604Z,0.00
2017-10-20T02:09:47.582Z,0.00
2017-10-20T02:10:47.608Z,0.00
2017-10-20T02:11:47.554Z,0.00
2017-10-20T02:12:47.699Z,0.00
2017-10-20T02:13:47.535Z,0.00
2017-10-20T02:14:47.533Z,0.00
2017-10-20T02:15:47.508Z,0.00
2017-10-20T02:16:47.506Z,0.00
2017-10-20T02:17:47.500Z,0.00
2017-10-20T02:18:47.503Z,0.00
2017-10-20T02:19:47.482Z,0.00
2017-10-20T02:20:47.466Z,0.00
2017-10-20T02:21:47.458Z,0.00
2017-10-20T02:22:47.604Z,0.00
2017-10-20T02:23:47.441Z,0.00
2017-10-20T02:24:47.426Z,0.00
2017-10-20T02:25:47.413Z,0.00
2017-10-20T02:26:47.394Z,0.00
2017-10-20T02:27:47.392Z,0.00
2017-10-20T02:28:47.537Z,0.00
2017-10-20T02:29:47.354Z,0.00
2017-10-20T02:30:47.358Z,0.00
2017-10-20T02:31:47.344Z,0.00
2017-10-20T02:32:47.341Z,0.00
2017-10-20T02:33:47.320Z,0.00
2017-10-20T02:34:47.667Z,0.00
2017-10-20T02:35:47.307Z,0.00
2017-10-20T02:36:47.278Z,0.00
2017-10-20T02:37:47.287Z,0.00
2017-10-20T02:38:47.258Z,0.00
2017-10-20T02:39:47.247Z,0.00
2017-10-20T02:40:47.586Z,0.00
2017-10-20T02:41:47.226Z,0.00
2017-10-20T02:42:47.227Z,0.00
2017-10-20T02:43:47.204Z,0.00
2017-10-20T02:44:47.204Z,0.00
2017-10-20T02:45:47.178Z,0.00
2017-10-20T02:46:47.202Z,0.00
2017-10-20T02:47:48.252Z,0.00
2017-10-20T02:48:47.157Z,0.00
2017-10-20T02:49:47.148Z,0.00
2017-10-20T02:50:47.162Z,0.00
2017-10-20T02:51:47.130Z,0.00
2017-10-20T02:52:47.113Z,0.00
2017-10-20T02:53:47.091Z,0.00
2017-10-20T02:54:47.080Z,0.00
2017-10-20T02:55:47.189Z,0.00
2017-10-20T02:56:47.064Z,0.00
2017-10-20T02:57:47.060Z,0.00
2017-10-20T02:58:47.046Z,0.00
2017-10-20T02:59:47.040Z,0.00
2017-10-20T03:00:47.016Z,0.00
2017-10-20T03:01:47.161Z,0.00
2017-10-20T03:02:47.009Z,0.00
2017-10-20T03:03:46.981Z,0.00
2017-10-20T03:04:46.967Z,0.00
2017-10-20T03:05:46.971Z,0.00
2017-10-20T03:06:46.944Z,0.00
2017-10-20T03:07:47.022Z,0.00
2017-10-20T03:08:46.936Z,0.00
2017-10-20T03:09:46.922Z,0.00
2017-10-20T03:10:46.926Z,0.00
2017-10-20T03:11:46.901Z,0.00
2017-10-20T03:12:46.887Z,0.00
2017-10-20T03:13:46.895Z,0.00
2017-10-20T03:14:46.863Z,0.00
2017-10-20T03:15:46.878Z,0.00
2017-10-20T03:16:46.844Z,0.00
2017-10-20T03:17:46.926Z,0.00
2017-10-20T03:18:46.821Z,0.00
2017-10-20T03:19:46.803Z,0.00
2017-10-20T03:20:46.928Z,0.00
2017-10-20T03:21:46.812Z,0.00
2017-10-20T03:22:46.776Z,0.00
2017-10-20T03:23:46.773Z,0.00
2017-10-20T03:24:46.767Z,0.00
2017-10-20T03:25:46.746Z,0.00
2017-10-20T03:26:46.892Z,0.00
2017-10-20T03:27:46.727Z,0.00
2017-10-20T03:28:46.700Z,0.00
2017-10-20T03:29:46.704Z,0.00
2017-10-20T03:30:46.691Z,0.00
2017-10-20T03:31:46.679Z,0.00
2017-10-20T03:32:47.020Z,0.00
2017-10-20T03:33:46.653Z,0.00
2017-10-20T03:34:46.646Z,0.00
2017-10-20T03:35:46.637Z,0.00
2017-10-20T03:36:46.630Z,0.00
2017-10-20T03:37:46.604Z,0.00
2017-10-20T03:38:46.796Z,0.00
2017-10-20T03:39:46.607Z,0.00
2017-10-20T03:40:46.575Z,0.00
2017-10-20T03:41:46.570Z,0.00
2017-10-20T03:42:46.558Z,0.00
2017-10-20T03:43:46.545Z,0.00
2017-10-20T03:44:46.577Z,0.00
2017-10-20T03:45:46.530Z,0.00
2017-10-20T03:46:46.515Z,0.00
2017-10-20T03:47:46.500Z,0.00
2017-10-20T03:48:46.479Z,0.00
2017-10-20T03:49:46.484Z,0.00
2017-10-20T03:50:46.542Z,0.00
2017-10-20T03:51:46.467Z,0.00
2017-10-20T03:52:46.451Z,0.00
2017-10-20T03:53:46.433Z,0.00
2017-10-20T03:54:46.414Z,0.00
2017-10-20T03:55:46.398Z,0.00
2017-10-20T03:56:46.540Z,0.00
2017-10-20T03:57:46.392Z,0.00
2017-10-20T03:58:46.384Z,0.00
2017-10-20T03:59:46.356Z,0.00
2017-10-20T04:00:46.352Z,0.00
2017-10-20T04:01:46.336Z,0.00
2017-10-20T04:02:46.391Z,0.00
2017-10-20T04:03:46.326Z,0.00
2017-10-20T04:04:46.314Z,0.00
2017-10-20T04:05:46.289Z,0.00
2017-10-20T04:06:46.289Z,0.00
2017-10-20T04:07:46.272Z,0.00
2017-10-20T04:08:46.298Z,0.00
2017-10-20T04:09:46.262Z,0.00
2017-10-20T04:10:46.249Z,0.00
2017-10-20T04:11:46.374Z,0.00
2017-10-20T04:12:46.215Z,0.00
2017-10-20T04:13:46.222Z,0.00
2017-10-20T04:14:46.220Z,0.00
2017-10-20T04:15:46.181Z,0.00
2017-10-20T04:16:46.179Z,0.00
2017-10-20T04:17:46.196Z,0.00
2017-10-20T04:18:46.149Z,0.00
2017-10-20T04:19:46.151Z,0.00
2017-10-20T04:20:46.141Z,0.00
2017-10-20T04:21:46.124Z,0.00
2017-10-20T04:22:46.180Z,0.00
2017-10-20T04:23:46.101Z,0.00
2017-10-20T04:24:46.096Z,0.00
2017-10-20T04:25:46.086Z,0.00
2017-10-20T04:26:46.064Z,0.00
2017-10-20T04:27:46.067Z,0.00
2017-10-20T04:28:46.118Z,0.00
2017-10-20T04:29:46.040Z,0.00
2017-10-20T04:30:46.039Z,0.00
2017-10-20T04:31:46.016Z,0.00
2017-10-20T04:32:46.006Z,0.00
2017-10-20T04:33:46.000Z,0.00
2017-10-20T04:34:46.113Z,0.00
2017-10-20T04:35:45.970Z,0.00
2017-10-20T04:36:45.959Z,0.00
2017-10-20T04:37:45.951Z,0.00
2017-10-20T04:38:45.937Z,0.00
2017-10-20T04:39:45.929Z,0.00
2017-10-20T04:40:46.227Z,0.00
2017-10-20T04:41:45.905Z,0.00
2017-10-20T04:42:45.906Z,0.00
2017-10-20T04:43:45.889Z,0.00
2017-10-20T04:44:45.869Z,0.00
2017-10-20T04:45:45.861Z,0.00
2017-10-20T04:46:45.984Z,0.00
2017-10-20T04:47:45.824Z,0.00
2017-10-20T04:48:45.830Z,0.00
2017-10-20T04:49:45.810Z,0.00
2017-10-20T04:50:45.789Z,0.00
2017-10-20T04:51:45.790Z,0.00
2017-10-20T04:52:45.821Z,0.00
2017-10-20T04:53:45.782Z,0.00
2017-10-20T04:54:45.748Z,0.00
2017-10-20T04:55:45.741Z,0.00
2017-10-20T04:56:45.732Z,0.00
2017-10-20T04:57:45.726Z,0.00
2017-10-20T04:58:45.857Z,0.00
2017-10-20T04:59:46.168Z,0.00
2017-10-20T05:00:46.423Z,0.00
2017-10-20T05:01:46.241Z,0.00
2017-10-20T05:02:45.672Z,0.00
2017-10-20T05:03:45.652Z,0.00
2017-10-20T05:04:45.722Z,0.00
2017-10-20T05:05:45.630Z,0.00
2017-10-20T05:06:45.612Z,0.00
2017-10-20T05:07:45.626Z,0.00
2017-10-20T05:08:45.591Z,0.00
2017-10-20T05:09:45.581Z,0.00
2017-10-20T05:10:45.617Z,0.00
2017-10-20T05:11:45.568Z,0.00
2017-10-20T05:12:45.630Z,0.00
2017-10-20T05:13:45.537Z,0.00
2017-10-20T05:14:45.544Z,0.00
2017-10-20T05:15:45.526Z,0.00
2017-10-20T05:16:45.507Z,0.00
2017-10-20T05:17:45.658Z,0.00
2017-10-20T05:18:45.927Z,0.00
2017-10-20T05:19:45.475Z,0.00
2017-10-20T05:20:45.460Z,0.00
2017-10-20T05:21:45.456Z,0.00
2017-10-20T05:22:45.439Z,0.00
2017-10-20T05:23:45.425Z,0.00
2017-10-20T05:24:45.469Z,0.00
2017-10-20T05:25:45.420Z,0.00
2017-10-20T05:26:45.400Z,0.00
2017-10-20T05:27:45.390Z,0.00
2017-10-20T05:28:45.387Z,0.00
2017-10-20T05:29:45.399Z,0.00
2017-10-20T05:30:45.359Z,0.00
2017-10-20T05:31:45.338Z,0.00
2017-10-20T05:32:45.326Z,0.00
2017-10-20T05:33:45.317Z,0.00
2017-10-20T05:34:45.369Z,0.00
2017-10-20T05:35:45.297Z,0.00
2017-10-20T05:36:45.280Z,0.00
2017-10-20T05:37:45.283Z,0.00
2017-10-20T05:38:45.261Z,0.00
2017-10-20T05:39:45.261Z,0.00
2017-10-20T05:40:45.301Z,0.00
2017-10-20T05:41:45.224Z,0.00
2017-10-20T05:42:45.214Z,0.00
2017-10-20T05:43:45.214Z,0.00
2017-10-20T05:44:45.201Z,0.00
2017-10-20T05:45:45.212Z,0.00
2017-10-20T05:46:45.531Z,0.00
2017-10-20T05:47:45.165Z,0.00
2017-10-20T05:48:45.164Z,0.00
2017-10-20T05:49:45.144Z,0.00
2017-10-20T05:50:45.136Z,0.00
2017-10-20T05:51:45.112Z,0.00
2017-10-20T05:52:45.169Z,0.00
2017-10-20T05:53:45.099Z,0.00
2017-10-20T05:54:45.082Z,0.00
2017-10-20T05:55:45.084Z,0.00
2017-10-20T05:56:45.059Z,0.00
2017-10-20T05:57:45.060Z,0.00
2017-10-20T05:58:45.069Z,0.00
2017-10-20T05:59:45.032Z,0.00
2017-10-20T06:00:45.029Z,0.00
2017-10-20T06:01:45.009Z,0.00
2017-10-20T06:02:45.000Z,0.00
2017-10-20T06:03:45.128Z,0.00
2017-10-20T06:04:44.980Z,0.00
2017-10-20T06:05:44.953Z,0.00
2017-10-20T06:06:44.960Z,0.00
2017-10-20T06:07:44.959Z,0.00
2017-10-20T06:08:44.938Z,0.00
2017-10-20T06:09:45.081Z,0.00
2017-10-20T06:10:44.915Z,0.00
2017-10-20T06:11:44.890Z,0.00
2017-10-20T06:12:44.880Z,0.00
2017-10-20T06:13:44.871Z,0.00
2017-10-20T06:14:44.852Z,0.00
2017-10-20T06:15:44.898Z,0.00
2017-10-20T06:16:44.851Z,0.00
2017-10-20T06:17:44.821Z,0.00
2017-10-20T06:18:44.829Z,0.00
2017-10-20T06:19:44.816Z,0.00
2017-10-20T06:20:44.787Z,5.63
2017-10-20T06:21:44.812Z,5.63
2017-10-20T06:22:44.767Z,5.63
2017-10-20T06:23:44.778Z,5.63
2017-10-20T06:24:44.758Z,5.63
2017-10-20T06:25:45.203Z,5.63
2017-10-20T06:26:44.731Z,5.63
2017-10-20T06:27:44.724Z,5.63
2017-10-20T06:28:44.698Z,5.63
2017-10-20T06:29:44.706Z,5.63
2017-10-20T06:30:44.695Z,5.63
2017-10-20T06:31:44.701Z,5.63
2017-10-20T06:32:44.654Z,5.63
2017-10-20T06:33:44.785Z,5.63
2017-10-20T06:34:44.654Z,5.63
2017-10-20T06:35:44.633Z,5.63
2017-10-20T06:36:44.610Z,5.63
2017-10-20T06:37:44.605Z,5.63
2017-10-20T06:38:44.608Z,5.63
2017-10-20T06:39:44.613Z,0.00
2017-10-20T06:40:45.025Z,0.00
2017-10-20T06:41:44.559Z,0.00
2017-10-20T06:42:44.554Z,0.00
2017-10-20T06:43:44.544Z,0.00
2017-10-20T06:44:44.535Z,0.00
2017-10-20T06:45:44.511Z,0.00
2017-10-20T06:46:44.668Z,0.00
2017-10-20T06:47:44.486Z,0.00
2017-10-20T06:48:44.480Z,0.00
2017-10-20T06:49:44.481Z,0.00
2017-10-20T06:50:44.465Z,0.00
2017-10-20T06:51:44.456Z,0.00
2017-10-20T06:52:44.484Z,0.00
2017-10-20T06:53:44.436Z,0.00
2017-10-20T06:54:44.412Z,0.00
2017-10-20T06:55:44.411Z,0.00
2017-10-20T06:56:44.400Z,0.00
2017-10-20T06:57:44.391Z,5.63
2017-10-20T06:58:44.789Z,5.63
2017-10-20T06:59:44.368Z,5.63
2017-10-20T07:00:44.345Z,5.63
2017-10-20T07:01:44.352Z,5.63
2017-10-20T07:02:44.338Z,5.63
2017-10-20T07:03:44.310Z,5.63
2017-10-20T07:04:44.439Z,5.63
2017-10-20T07:05:44.289Z,5.63
2017-10-20T07:06:44.289Z,5.63
2017-10-20T07:13:04.365Z,5.63
2017-10-20T07:17:57.710Z,5.63
2017-10-20T07:18:57.916Z,5.63
2017-10-20T07:23:00.358Z,5.63
2017-10-20T07:23:52.178Z,5.63
2017-10-20T07:24:52.556Z,5.63
2017-10-20T07:25:52.154Z,5.63
2017-10-20T07:26:52.144Z,5.63
2017-10-20T07:27:52.115Z,5.63
2017-10-20T07:28:52.123Z,5.63
2017-10-20T07:29:52.103Z,5.63
2017-10-20T07:30:52.266Z,5.63
2017-10-20T07:31:52.077Z,5.63
2017-10-20T07:32:52.065Z,5.63
2017-10-20T07:33:52.046Z,5.63
2017-10-20T07:34:52.043Z,5.63
2017-10-20T07:35:52.016Z,5.63
2017-10-20T07:36:52.149Z,5.63
2017-10-20T07:37:52.012Z,5.63
2017-10-20T07:38:51.982Z,5.63
2017-10-20T07:39:51.984Z,5.63
2017-10-20T07:40:51.968Z,5.63
2017-10-20T07:41:51.960Z,5.63
2017-10-20T07:42:52.085Z,5.63
2017-10-20T07:43:51.928Z,5.63
2017-10-20T07:44:51.925Z,5.63
2017-10-20T07:45:51.916Z,5.63
2017-10-20T07:46:51.902Z,5.63
2017-10-20T07:47:51.987Z,5.63
2017-10-20T07:48:51.898Z,0.00
2017-10-20T07:49:51.863Z,0.00
2017-10-20T07:50:52.396Z,0.00
2017-10-20T07:51:51.942Z,0.00
2017-10-20T07:52:51.835Z,0.00
2017-10-20T07:53:51.820Z,0.00
2017-10-20T07:54:51.819Z,0.00
2017-10-20T07:55:51.802Z,0.00
2017-10-20T07:56:51.842Z,0.00
2017-10-20T07:57:51.775Z,5.63
2017-10-20T07:58:51.754Z,0.00
2017-10-20T07:59:51.759Z,0.00
2017-10-20T08:00:51.735Z,0.00
2017-10-20T08:01:51.723Z,0.00
2017-10-20T08:02:51.750Z,5.63
2017-10-20T08:03:51.774Z,5.63
2017-10-20T08:04:51.688Z,5.63
2017-10-20T08:05:51.675Z,5.63
2017-10-20T08:06:51.662Z,5.63
2017-10-20T08:07:51.653Z,5.63
2017-10-20T08:08:51.652Z,5.63
2017-10-20T08:09:51.797Z,5.63
2017-10-20T08:10:51.623Z,5.63
2017-10-20T08:11:51.621Z,5.63
2017-10-20T08:12:51.597Z,5.63
2017-10-20T08:13:51.588Z,5.63
2017-10-20T08:14:51.588Z,5.63
2017-10-20T08:15:51.709Z,5.63
2017-10-20T08:16:51.561Z,5.63
2017-10-20T08:17:51.547Z,5.63
2017-10-20T08:18:51.527Z,5.63
2017-10-20T08:19:51.533Z,5.63
2017-10-20T08:20:51.519Z,5.63
2017-10-20T08:21:51.537Z,5.63
2017-10-20T08:22:51.497Z,5.63
2017-10-20T08:23:51.485Z,5.63
2017-10-20T08:24:51.480Z,5.63
2017-10-20T08:25:51.590Z,5.63
2017-10-20T08:26:51.449Z,5.63
2017-10-20T08:27:51.441Z,5.63
2017-10-20T08:28:51.428Z,5.63
2017-10-20T08:29:51.419Z,5.63
2017-10-20T08:30:51.406Z,5.63
2017-10-20T08:31:51.449Z,5.63
2017-10-20T08:32:51.375Z,5.63
2017-10-20T08:33:51.384Z,5.63
2017-10-20T08:34:51.351Z,11.25
2017-10-20T08:35:51.336Z,5.63
2017-10-20T08:36:51.327Z,11.25
2017-10-20T08:37:51.477Z,11.25
2017-10-20T08:38:51.317Z,11.25
2017-10-20T08:39:51.315Z,11.25
2017-10-20T08:40:51.291Z,11.25
2017-10-20T08:41:51.272Z,11.25
2017-10-20T08:42:51.278Z,11.25
2017-10-20T08:43:51.282Z,11.25
2017-10-20T08:44:51.240Z,11.25
2017-10-20T08:45:51.224Z,11.25
2017-10-20T08:46:51.230Z,11.25
2017-10-20T08:47:51.209Z,5.63
2017-10-20T08:48:51.259Z,5.63
2017-10-20T08:49:51.194Z,5.63
2017-10-20T08:50:51.185Z,5.63
2017-10-20T08:51:51.174Z,5.63
2017-10-20T08:52:51.148Z,5.63
2017-10-20T08:53:51.153Z,5.63
2017-10-20T08:54:51.194Z,5.63
2017-10-20T08:55:51.128Z,5.63
2017-10-20T08:56:51.101Z,11.25
2017-10-20T08:57:51.109Z,11.25
2017-10-20T08:58:51.079Z,11.25
2017-10-20T08:59:51.086Z,16.88
2017-10-20T09:00:51.202Z,16.88
2017-10-20T09:01:51.047Z,16.88
2017-10-20T09:02:51.045Z,22.50
2017-10-20T09:03:51.038Z,22.50
2017-10-20T09:04:51.035Z,22.50
2017-10-20T09:05:51.008Z,22.50
2017-10-20T09:06:51.058Z,22.50
2017-10-20T09:07:50.982Z,28.13
2017-10-20T09:08:50.970Z,45.00
2017-10-20T09:09:50.969Z,50.63
2017-10-20T09:10:50.975Z,50.63
2017-10-20T09:11:50.939Z,50.63
2017-10-20T09:12:50.991Z,45.00
2017-10-20T09:13:50.926Z,45.00
2017-10-20T09:14:50.903Z,45.00
2017-10-20T09:15:50.901Z,50.63
2017-10-20T09:16:50.886Z,61.88
2017-10-20T09:17:50.883Z,67.50
2017-10-20T09:18:51.007Z,67.50
2017-10-20T09:19:50.847Z,78.75
2017-10-20T09:20:50.855Z,95.63
2017-10-20T09:21:50.834Z,101.25
2017-10-20T09:22:50.827Z,106.88
2017-10-20T09:23:50.810Z,101.25
2017-10-20T09:24:50.835Z,95.63
2017-10-20T09:25:50.778Z,95.63
2017-10-20T09:26:50.785Z,90.00
2017-10-20T09:27:51.072Z,90.00
2017-10-20T09:28:51.065Z,90.00
2017-10-20T09:29:50.796Z,84.38
2017-10-20T09:30:50.742Z,84.38
2017-10-20T09:31:50.715Z,84.38
2017-10-20T09:32:50.706Z,84.38
2017-10-20T09:33:50.692Z,84.38
2017-10-20T09:34:50.695Z,95.63
2017-10-20T09:35:50.706Z,112.50
2017-10-20T09:36:50.673Z,112.50
2017-10-20T09:37:50.661Z,106.88
2017-10-20T09:38:50.689Z,101.25
2017-10-20T09:39:50.782Z,101.25
2017-10-20T09:40:50.617Z,112.50
2017-10-20T09:41:50.617Z,101.25
2017-10-20T09:42:50.629Z,101.25
2017-10-20T09:43:50.589Z,95.63
2017-10-20T09:44:50.594Z,95.63
2017-10-20T09:45:50.933Z,112.50
2017-10-20T09:46:50.557Z,112.50
2017-10-20T09:47:50.561Z,118.13
2017-10-20T09:48:50.548Z,112.50
2017-10-20T09:49:50.540Z,106.88
2017-10-20T09:50:50.526Z,101.25
2017-10-20T09:51:50.579Z,101.25
2017-10-20T09:52:50.507Z,95.63
2017-10-20T09:53:50.482Z,106.88
2017-10-20T09:54:50.494Z,101.25
2017-10-20T09:55:50.461Z,101.25
2017-10-20T09:56:50.472Z,95.63
2017-10-20T09:57:50.510Z,78.75
2017-10-20T09:58:50.445Z,67.50
2017-10-20T09:59:50.420Z,73.13
2017-10-20T10:00:50.424Z,78.75
2017-10-20T10:01:50.410Z,73.13
2017-10-20T10:02:50.414Z,73.13
2017-10-20T10:03:50.444Z,67.50
2017-10-20T10:04:50.373Z,67.50
2017-10-20T10:05:50.374Z,67.50
2017-10-20T10:06:50.351Z,73.13
2017-10-20T10:07:50.346Z,84.38
2017-10-20T10:08:50.332Z,84.38
2017-10-20T10:09:50.371Z,73.13
2017-10-20T10:10:50.311Z,78.75
2017-10-20T10:11:50.321Z,67.50
2017-10-20T10:12:50.289Z,67.50
2017-10-20T10:13:50.279Z,61.88
2017-10-20T10:14:50.269Z,50.63
2017-10-20T10:15:50.317Z,50.63
2017-10-20T10:16:50.262Z,50.63
2017-10-20T10:17:50.245Z,50.63
2017-10-20T10:18:50.234Z,50.63
2017-10-20T10:19:50.238Z,50.63
2017-10-20T10:20:50.201Z,45.00
2017-10-20T10:21:50.271Z,33.75
2017-10-20T10:22:50.202Z,28.13
2017-10-20T10:23:50.205Z,39.38
2017-10-20T10:24:50.163Z,45.00
2017-10-20T10:25:50.168Z,56.25
2017-10-20T10:26:50.145Z,56.25
2017-10-20T10:27:50.496Z,50.63
2017-10-20T10:28:50.143Z,45.00
2017-10-20T10:29:50.117Z,39.38
2017-10-20T10:30:50.116Z,28.13
2017-10-20T10:31:50.108Z,22.50
2017-10-20T10:32:50.082Z,16.88
2017-10-20T10:33:50.214Z,16.88
2017-10-20T10:34:50.080Z,16.88
2017-10-20T10:35:50.063Z,16.88
2017-10-20T10:36:50.059Z,11.25
2017-10-20T10:37:50.248Z,11.25
2017-10-20T10:38:50.021Z,11.25
2017-10-20T10:39:50.443Z,16.88
2017-10-20T10:40:50.010Z,28.13
2017-10-20T10:41:50.041Z,33.75
2017-10-20T10:42:49.978Z,16.88
2017-10-20T10:43:49.967Z,11.25
2017-10-20T10:44:49.972Z,11.25
2017-10-20T10:45:49.984Z,16.88
2017-10-20T10:46:50.477Z,22.50
2017-10-20T10:47:49.924Z,16.88
2017-10-20T10:48:49.931Z,16.88
2017-10-20T10:49:49.917Z,22.50
2017-10-20T10:50:49.943Z,33.75
2017-10-20T10:51:49.895Z,39.38
2017-10-20T10:52:49.912Z,45.00
2017-10-20T10:53:49.879Z,50.63
2017-10-20T10:54:49.864Z,50.63
2017-10-20T10:55:50.090Z,50.63
2017-10-20T10:56:49.831Z,45.00
2017-10-20T10:57:49.825Z,45.00
2017-10-20T10:58:49.809Z,45.00
2017-10-20T10:59:49.814Z,50.63
2017-10-20T11:00:49.864Z,45.00
2017-10-20T11:01:49.786Z,45.00
2017-10-20T11:02:49.797Z,56.25
2017-10-20T11:03:49.795Z,61.88
2017-10-20T11:04:52.477Z,61.88
2017-10-20T11:05:50.272Z,67.50
2017-10-20T11:06:50.254Z,61.88
2017-10-20T11:07:49.801Z,50.63
2017-10-20T12:29:39.967Z,123.75
2017-10-20T12:30:39.900Z,163.13
2017-10-20T12:31:39.860Z,157.50
2017-10-20T12:32:39.901Z,180.00
2017-10-20T12:33:39.838Z,151.88
2017-10-20T12:34:39.839Z,135.00
2017-10-20T12:35:39.969Z,174.38
2017-10-20T12:36:39.819Z,135.00
2017-10-20T12:37:39.805Z,168.75
2017-10-20T12:38:39.824Z,202.50
2017-10-20T12:39:39.782Z,219.38
2017-10-20T12:40:39.771Z,225.00
2017-10-20T12:41:39.868Z,219.38
2017-10-20T12:42:39.760Z,196.88
2017-10-20T12:43:39.742Z,180.00
2017-10-20T12:44:40.061Z,213.75
2017-10-20T12:45:39.716Z,247.50
2017-10-20T12:46:39.704Z,230.63
2017-10-20T12:47:39.877Z,129.38
2017-10-20T12:48:39.842Z,123.75
2017-10-20T12:49:39.896Z,168.75
2017-10-20T12:50:39.654Z,202.50
2017-10-20T12:51:39.651Z,281.25
2017-10-20T12:52:39.650Z,213.75
2017-10-20T12:53:40.034Z,230.63
2017-10-20T12:54:39.821Z,202.50
2017-10-20T12:55:39.633Z,151.88
2017-10-20T12:56:39.633Z,106.88
2017-10-20T12:57:39.587Z,90.00
2017-10-20T12:58:39.586Z,73.13
2017-10-20T12:59:40.626Z,61.88
2017-10-20T13:00:39.558Z,90.00
2017-10-20T13:01:40.245Z,135.00
2017-10-20T13:02:39.548Z,163.13
2017-10-20T13:03:39.527Z,191.25
2017-10-20T13:04:39.807Z,196.88
2017-10-20T13:05:39.576Z,208.13
2017-10-20T13:06:39.518Z,151.88
2017-10-20T13:07:39.490Z,157.50
2017-10-20T13:08:39.491Z,106.88
2017-10-20T13:09:39.474Z,106.88
2017-10-20T13:10:39.461Z,123.75
2017-10-20T13:11:39.520Z,146.25
2017-10-20T13:12:39.449Z,157.50
2017-10-20T13:13:39.528Z,230.63
2017-10-20T13:14:39.421Z,151.88
2017-10-20T13:15:39.903Z,151.88
2017-10-20T13:16:39.405Z,140.63
2017-10-20T13:17:39.571Z,140.63
2017-10-20T13:18:39.392Z,225.00
2017-10-20T13:19:39.371Z,123.75
2017-10-20T13:20:39.373Z,163.13
2017-10-20T13:21:39.349Z,219.38
2017-10-20T13:22:40.909Z,213.75
2017-10-20T13:23:39.472Z,151.88
2017-10-20T13:24:39.341Z,146.25
2017-10-20T13:25:39.332Z,151.88
2017-10-20T13:26:39.297Z,146.25
2017-10-20T13:27:39.322Z,135.00
2017-10-20T13:28:39.289Z,129.38
2017-10-20T13:29:39.333Z,241.88
2017-10-20T13:30:39.271Z,174.38
2017-10-20T13:31:39.252Z,140.63
2017-10-20T13:32:39.290Z,123.75
2017-10-20T13:33:39.257Z,163.13
2017-10-20T13:34:39.239Z,174.38
2017-10-20T13:35:39.269Z,196.88
2017-10-20T13:36:39.203Z,185.63
2017-10-20T13:37:39.266Z,163.13
2017-10-20T13:38:39.201Z,264.38
2017-10-20T13:39:39.172Z,416.25
2017-10-20T13:40:39.168Z,140.63
2017-10-20T13:41:39.166Z,416.25
2017-10-20T13:42:39.144Z,140.63
2017-10-20T13:43:39.190Z,151.88
2017-10-20T13:44:39.138Z,185.63
2017-10-20T13:45:39.111Z,556.88
2017-10-20T13:46:39.282Z,225.00
2017-10-20T13:47:39.091Z,230.63
2017-10-20T13:48:39.153Z,135.00
2017-10-20T13:49:39.138Z,180.00
2017-10-20T13:50:39.064Z,635.63
2017-10-20T13:51:39.279Z,793.13
2017-10-20T13:52:39.055Z,804.38
2017-10-20T13:53:39.045Z,157.50
2017-10-20T13:54:39.049Z,787.50
2017-10-20T13:55:39.287Z,714.38
2017-10-20T13:56:39.502Z,658.13
2017-10-20T13:57:39.245Z,866.25
2017-10-20T13:58:39.001Z,585.00
2017-10-20T13:59:38.981Z,860.63
2017-10-20T14:00:38.988Z,607.50
2017-10-20T14:01:39.004Z,556.88
2017-10-20T14:02:38.968Z,646.88
2017-10-20T14:03:39.016Z,568.13
2017-10-20T14:04:38.937Z,393.75
2017-10-20T14:05:38.953Z,922.50
2017-10-20T14:06:38.947Z,590.63
2017-10-20T14:07:38.926Z,90.00
2017-10-20T14:08:38.921Z,67.50
2017-10-20T14:09:38.968Z,67.50
2017-10-20T14:10:38.909Z,73.13
2017-10-20T14:11:38.889Z,67.50
2017-10-20T14:12:38.889Z,61.88
2017-10-20T14:13:38.883Z,67.50
2017-10-20T14:14:38.868Z,67.50
2017-10-20T14:15:39.063Z,67.50
2017-10-20T14:16:38.852Z,67.50
2017-10-20T14:17:38.830Z,67.50
2017-10-20T14:18:39.938Z,61.88
2017-10-20T14:19:40.451Z,50.63
2017-10-20T14:20:38.962Z,45.00
2017-10-20T14:21:39.264Z,39.38
2017-10-20T14:22:39.017Z,39.38
2017-10-20T14:24:11.660Z,39.38
2017-10-20T14:24:38.794Z,33.75
2017-10-20T14:25:38.867Z,33.75
2017-10-20T14:26:38.951Z,28.13
2017-10-20T14:27:38.832Z,28.13
2017-10-20T14:28:38.734Z,28.13
2017-10-20T14:29:38.730Z,33.75
2017-10-20T14:30:38.718Z,33.75
2017-10-20T14:31:38.764Z,28.13
2017-10-20T14:32:38.699Z,28.13
2017-10-20T14:33:38.686Z,33.75
2017-10-20T14:34:38.681Z,33.75
2017-10-20T14:35:38.680Z,33.75
2017-10-20T14:36:38.651Z,28.13
2017-10-20T14:37:38.937Z,22.50
2017-10-20T14:38:38.629Z,22.50